Time,TemperatureF,DewpointF,PressureIn,WindDirection,WindDirectionDegrees,WindSpeedMPH,WindSpeedGustMPH,Humidity,HourlyPrecipIn,Conditions,Clouds,dailyrainin,SolarRadiationWatts/m^2,SoftwareType,DateUTC
2013-02-01 00:10:00,44.1,40.0,30.15,SW,233,0.0,-999.0,85,-99.99,,,0.00,0,weatherlink.com 1.10,2013-02-01 08:10:00,
2013-02-01 00:25:00,43.8,40.0,30.15,SW,233,0.0,-999.0,86,-99.99,,,0.00,0,weatherlink.com 1.10,2013-02-01 08:25:00,
2013-02-01 00:40:00,43.6,40.0,30.15,SW,233,0.0,-999.0,87,-99.99,,,0.00,0,weatherlink.com 1.10,2013-02-01 08:40:00,
2013-02-01 00:55:00,43.3,40.0,30.15,SW,233,0.0,-999.0,87,-99.99,,,0.00,0,weatherlink.com 1.10,2013-02-01 08:55:00,
2013-02-01 01:10:00,43.2,41.0,30.16,SW,233,0.0,-999.0,92,-99.99,,,0.00,0,weatherlink.com 1.10,2013-02-01 09:10:00,
2013-02-01 01:25:00,43.2,40.0,30.16,SW,233,0.0,-999.0,88,-99.99,,,0.00,0,weatherlink.com 1.10,2013-02-01 09:25:00,
2013-02-01 01:40:00,42.8,40.0,30.16,SW,233,0.0,-999.0,88,-99.99,,,0.00,0,weatherlink.com 1.10,2013-02-01 09:40:00,
2013-02-01 01:55:00,42.4,39.0,30.15,SW,233,0.0,-999.0,87,-99.99,,,0.00,0,weatherlink.com 1.10,2013-02-01 09:55:00,
2013-02-01 02:10:00,42.1,39.0,30.15,SW,233,0.0,-999.0,87,-99.99,,,0.00,0,weatherlink.com 1.10,2013-02-01 10:10:00,
2013-02-01 02:25:00,42.2,39.0,30.15,SW,233,0.0,-999.0,88,-99.99,,,0.00,0,weatherlink.com 1.10,2013-02-01 10:25:00,
2013-02-01 02:40:00,42.0,39.0,30.16,SW,233,0.0,-999.0,88,-99.99,,,0.00,0,weatherlink.com 1.10,2013-02-01 10:40:00,
2013-02-01 02:55:00,41.6,38.0,30.16,SW,233,0.0,-999.0,88,-99.99,,,0.00,0,weatherlink.com 1.10,2013-02-01 10:55:00,
2013-02-01 03:11:00,41.3,38.0,30.16,SW,233,0.0,-999.0,88,-99.99,,,0.00,0,weatherlink.com 1.10,2013-02-01 11:11:00,
2013-02-01 03:25:00,41.0,38.0,30.15,SW,233,0.0,-999.0,89,-99.99,,,0.00,0,weatherlink.com 1.10,2013-02-01 11:25:00,
2013-02-01 03:40:00,40.7,38.0,30.16,SW,233,0.0,-999.0,89,-99.99,,,0.00,0,weatherlink.com 1.10,2013-02-01 11:40:00,
2013-02-01 03:56:00,41.5,39.0,30.16,SW,225,0.0,-999.0,90,-99.99,,,0.00,0,weatherlink.com 1.10,2013-02-01 11:56:00,
2013-02-01 04:11:00,41.0,38.0,30.16,SW,224,0.0,-999.0,90,-99.99,,,0.00,0,weatherlink.com 1.10,2013-02-01 12:11:00,
2013-02-01 04:26:00,40.2,37.0,30.15,SW,224,0.0,-999.0,89,-99.99,,,0.00,0,weatherlink.com 1.10,2013-02-01 12:26:00,
2013-02-01 04:41:00,39.8,37.0,30.16,SW,224,0.0,-999.0,89,-99.99,,,0.00,0,weatherlink.com 1.10,2013-02-01 12:41:00,
2013-02-01 04:56:00,40.2,38.0,30.16,SE,127,0.0,-999.0,90,-99.99,,,0.00,0,weatherlink.com 1.10,2013-02-01 12:56:00,
2013-02-01 05:11:00,40.4,38.0,30.17,SE,127,0.0,-999.0,90,-99.99,,,0.00,0,weatherlink.com 1.10,2013-02-01 13:11:00,
2013-02-01 05:26:00,40.1,38.0,30.17,SE,127,0.0,-999.0,90,-99.99,,,0.00,0,weatherlink.com 1.10,2013-02-01 13:26:00,
2013-02-01 05:41:00,39.7,37.0,30.18,SE,127,0.0,-999.0,90,-99.99,,,0.00,0,weatherlink.com 1.10,2013-02-01 13:41:00,
2013-02-01 05:56:00,39.4,37.0,30.18,SE,127,0.0,-999.0,91,-99.99,,,0.00,0,weatherlink.com 1.10,2013-02-01 13:56:00,
2013-02-01 06:11:00,39.3,37.0,30.17,SE,127,0.0,-999.0,91,-99.99,,,0.00,0,weatherlink.com 1.10,2013-02-01 14:11:00,
2013-02-01 06:26:00,39.0,37.0,30.16,SE,127,0.0,-999.0,91,-99.99,,,0.00,0,weatherlink.com 1.10,2013-02-01 14:26:00,
2013-02-01 06:41:00,38.9,37.0,30.16,SE,127,0.0,-999.0,91,-99.99,,,0.00,0,weatherlink.com 1.10,2013-02-01 14:41:00,
2013-02-01 06:56:00,39.7,38.0,30.15,ENE,76,0.0,-999.0,92,-99.99,,,0.00,9,weatherlink.com 1.10,2013-02-01 14:56:00,
2013-02-01 07:11:00,39.6,37.0,30.15,ENE,76,0.0,-999.0,91,-99.99,,,0.00,33,weatherlink.com 1.10,2013-02-01 15:11:00,
2013-02-01 07:26:00,40.4,38.0,30.15,ENE,76,0.0,-999.0,92,-99.99,,,0.00,76,weatherlink.com 1.10,2013-02-01 15:26:00,
2013-02-01 07:41:00,41.6,40.0,30.16,ESE,117,0.0,-999.0,93,-99.99,,,0.00,127,weatherlink.com 1.10,2013-02-01 15:41:00,
2013-02-01 07:56:00,43.4,42.0,30.16,ESE,117,0.0,-999.0,93,-99.99,,,0.00,186,weatherlink.com 1.10,2013-02-01 15:56:00,
2013-02-01 08:26:00,47.7,45.0,30.16,SSW,212,0.0,-999.0,91,-99.99,,,0.00,297,weatherlink.com 1.10,2013-02-01 16:26:00,
2013-02-01 08:41:00,50.0,47.0,30.16,ESE,106,0.0,-999.0,88,-99.99,,,0.00,346,weatherlink.com 1.10,2013-02-01 16:41:00,
2013-02-01 08:56:00,52.8,47.0,30.16,ESE,106,0.0,-999.0,80,-99.99,,,0.00,399,weatherlink.com 1.10,2013-02-01 16:56:00,
2013-02-01 09:11:00,55.3,48.0,30.16,ESE,106,0.0,-999.0,75,-99.99,,,0.00,441,weatherlink.com 1.10,2013-02-01 17:11:00,
2013-02-01 09:27:00,57.9,48.0,30.16,ESE,106,0.0,-999.0,70,-99.99,,,0.00,501,weatherlink.com 1.10,2013-02-01 17:27:00,
2013-02-01 09:42:00,62.2,46.0,30.17,WSW,255,0.0,-999.0,56,-99.99,,,0.00,527,weatherlink.com 1.10,2013-02-01 17:42:00,
2013-02-01 09:57:00,65.2,46.0,30.16,WNW,284,1.0,-999.0,50,-99.99,,,0.00,559,weatherlink.com 1.10,2013-02-01 17:57:00,
2013-02-01 10:12:00,66.9,48.0,30.17,WNW,285,1.0,-999.0,51,-99.99,,,0.00,594,weatherlink.com 1.10,2013-02-01 18:12:00,
2013-02-01 10:27:00,68.7,50.0,30.17,West,271,0.0,-999.0,51,-99.99,,,0.00,621,weatherlink.com 1.10,2013-02-01 18:27:00,
2013-02-01 10:42:00,70.2,49.0,30.17,WNW,288,1.0,-999.0,47,-99.99,,,0.00,631,weatherlink.com 1.10,2013-02-01 18:42:00,
2013-02-01 10:57:00,71.0,47.0,30.17,SSE,147,4.0,-999.0,43,-99.99,,,0.00,631,weatherlink.com 1.10,2013-02-01 18:57:00,
2013-02-01 11:12:00,70.7,47.0,30.18,SSW,193,4.0,-999.0,43,-99.99,,,0.00,673,weatherlink.com 1.10,2013-02-01 19:12:00,
2013-02-01 11:27:00,70.7,48.0,30.18,SE,140,2.0,-999.0,44,-99.99,,,0.00,694,weatherlink.com 1.10,2013-02-01 19:27:00,
2013-02-01 11:42:00,71.3,48.0,30.17,SE,146,1.0,-999.0,44,-99.99,,,0.00,643,weatherlink.com 1.10,2013-02-01 19:42:00,
2013-02-01 11:57:00,71.5,51.0,30.16,NW,304,3.0,-999.0,49,-99.99,,,0.00,664,weatherlink.com 1.10,2013-02-01 19:57:00,
2013-02-01 12:12:00,71.3,51.0,30.16,NW,309,0.0,-999.0,49,-99.99,,,0.00,666,weatherlink.com 1.10,2013-02-01 20:12:00,
2013-02-01 12:42:00,71.1,49.0,30.14,West,260,3.0,-999.0,45,-99.99,,,0.00,512,weatherlink.com 1.10,2013-02-01 20:42:00,
2013-02-01 12:57:00,70.9,46.0,30.14,WSW,253,3.0,-999.0,41,-99.99,,,0.00,519,weatherlink.com 1.10,2013-02-01 20:57:00,
2013-02-01 13:13:00,71.6,45.0,30.13,WNW,290,0.0,-999.0,38,-99.99,,,0.00,622,weatherlink.com 1.10,2013-02-01 21:13:00,
2013-02-01 13:28:00,72.3,44.0,30.13,WSW,258,0.0,-999.0,37,-99.99,,,0.00,543,weatherlink.com 1.10,2013-02-01 21:28:00,
2013-02-01 13:42:00,72.9,47.0,30.13,WSW,258,4.0,-999.0,40,-99.99,,,0.00,561,weatherlink.com 1.10,2013-02-01 21:42:00,
2013-02-01 13:57:00,73.7,46.0,30.13,WNW,288,3.0,-999.0,38,-99.99,,,0.00,403,weatherlink.com 1.10,2013-02-01 21:57:00,
2013-02-01 14:13:00,73.4,47.0,30.12,West,259,5.0,-999.0,39,-99.99,,,0.00,362,weatherlink.com 1.10,2013-02-01 22:13:00,
2013-02-01 14:28:00,73.9,48.0,30.12,WSW,252,3.0,-999.0,40,-99.99,,,0.00,584,weatherlink.com 1.10,2013-02-01 22:28:00,
2013-02-01 14:43:00,74.5,45.0,30.12,West,261,3.0,-999.0,35,-99.99,,,0.00,424,weatherlink.com 1.10,2013-02-01 22:43:00,
2013-02-01 14:58:00,75.0,47.0,30.12,WSW,249,2.0,-999.0,37,-99.99,,,0.00,378,weatherlink.com 1.10,2013-02-01 22:58:00,
2013-02-01 15:13:00,75.0,43.0,30.12,West,271,1.0,-999.0,32,-99.99,,,0.00,336,weatherlink.com 1.10,2013-02-01 23:13:00,
2013-02-01 15:28:00,74.9,41.0,30.12,West,271,3.0,-999.0,30,-99.99,,,0.00,250,weatherlink.com 1.10,2013-02-01 23:28:00,
2013-02-01 15:43:00,74.4,42.0,30.12,West,265,1.0,-999.0,31,-99.99,,,0.00,156,weatherlink.com 1.10,2013-02-01 23:43:00,
2013-02-01 15:58:00,73.9,44.0,30.12,NW,309,0.0,-999.0,34,-99.99,,,0.00,243,weatherlink.com 1.10,2013-02-01 23:58:00,
2013-02-01 16:13:00,74.0,44.0,30.12,NW,310,0.0,-999.0,34,-99.99,,,0.00,139,weatherlink.com 1.10,2013-02-02 00:13:00,
2013-02-01 16:43:00,72.6,45.0,30.11,NW,310,0.0,-999.0,38,-99.99,,,0.00,51,weatherlink.com 1.10,2013-02-02 00:43:00,
2013-02-01 16:58:00,71.2,46.0,30.11,NW,310,0.0,-999.0,41,-99.99,,,0.00,26,weatherlink.com 1.10,2013-02-02 00:58:00,
2013-02-01 17:13:00,69.8,46.0,30.11,NW,310,0.0,-999.0,42,-99.99,,,0.00,9,weatherlink.com 1.10,2013-02-02 01:13:00,
2013-02-01 17:28:00,68.3,47.0,30.12,NW,310,0.0,-999.0,46,-99.99,,,0.00,0,weatherlink.com 1.10,2013-02-02 01:28:00,
2013-02-01 17:43:00,66.2,46.0,30.13,NW,310,0.0,-999.0,49,-99.99,,,0.00,0,weatherlink.com 1.10,2013-02-02 01:43:00,
2013-02-01 17:59:00,64.3,47.0,30.13,NW,310,0.0,-999.0,53,-99.99,,,0.00,0,weatherlink.com 1.10,2013-02-02 01:59:00,
2013-02-01 18:13:00,62.2,45.0,30.14,NW,310,0.0,-999.0,54,-99.99,,,0.00,0,weatherlink.com 1.10,2013-02-02 02:13:00,
2013-02-01 18:28:00,60.5,45.0,30.14,NW,310,0.0,-999.0,57,-99.99,,,0.00,0,weatherlink.com 1.10,2013-02-02 02:28:00,
2013-02-01 18:43:00,59.1,45.0,30.14,NW,310,0.0,-999.0,60,-99.99,,,0.00,0,weatherlink.com 1.10,2013-02-02 02:43:00,
2013-02-01 18:58:00,58.0,45.0,30.15,NW,310,0.0,-999.0,62,-99.99,,,0.00,0,weatherlink.com 1.10,2013-02-02 02:58:00,
2013-02-01 19:13:00,56.8,45.0,30.15,NW,310,0.0,-999.0,65,-99.99,,,0.00,0,weatherlink.com 1.10,2013-02-02 03:13:00,
2013-02-01 19:28:00,56.3,45.0,30.16,NW,310,0.0,-999.0,67,-99.99,,,0.00,0,weatherlink.com 1.10,2013-02-02 03:28:00,
2013-02-01 19:43:00,55.4,45.0,30.16,NW,310,0.0,-999.0,69,-99.99,,,0.00,0,weatherlink.com 1.10,2013-02-02 03:43:00,
2013-02-01 19:58:00,54.7,45.0,30.17,NW,310,0.0,-999.0,70,-99.99,,,0.00,0,weatherlink.com 1.10,2013-02-02 03:58:00,
2013-02-01 20:13:00,54.0,45.0,30.17,NW,310,0.0,-999.0,72,-99.99,,,0.00,0,weatherlink.com 1.10,2013-02-02 04:13:00,
2013-02-01 20:28:00,53.5,45.0,30.18,NW,310,0.0,-999.0,73,-99.99,,,0.00,0,weatherlink.com 1.10,2013-02-02 04:28:00,
2013-02-01 20:43:00,52.8,45.0,30.18,NW,310,0.0,-999.0,74,-99.99,,,0.00,0,weatherlink.com 1.10,2013-02-02 04:43:00,
2013-02-01 20:58:00,52.0,45.0,30.18,NW,310,0.0,-999.0,76,-99.99,,,0.00,0,weatherlink.com 1.10,2013-02-02 04:58:00,
2013-02-01 21:13:00,51.5,45.0,30.19,NW,310,0.0,-999.0,78,-99.99,,,0.00,0,weatherlink.com 1.10,2013-02-02 05:13:00,
2013-02-01 21:28:00,51.4,45.0,30.19,NW,310,0.0,-999.0,80,-99.99,,,0.00,0,weatherlink.com 1.10,2013-02-02 05:28:00,
2013-02-01 21:43:00,50.9,45.0,30.20,SW,217,0.0,-999.0,79,-99.99,,,0.00,0,weatherlink.com 1.10,2013-02-02 05:43:00,
2013-02-01 21:58:00,50.3,44.0,30.19,SW,217,0.0,-999.0,80,-99.99,,,0.00,0,weatherlink.com 1.10,2013-02-02 05:58:00,
2013-02-01 22:13:00,50.0,44.0,30.20,SW,217,0.0,-999.0,80,-99.99,,,0.00,0,weatherlink.com 1.10,2013-02-02 06:13:00,
2013-02-01 22:28:00,49.6,44.0,30.20,SW,217,0.0,-999.0,81,-99.99,,,0.00,0,weatherlink.com 1.10,2013-02-02 06:28:00,
2013-02-01 22:43:00,49.2,44.0,30.19,SW,217,0.0,-999.0,82,-99.99,,,0.00,0,weatherlink.com 1.10,2013-02-02 06:43:00,
2013-02-01 22:58:00,48.8,44.0,30.19,SW,217,0.0,-999.0,83,-99.99,,,0.00,0,weatherlink.com 1.10,2013-02-02 06:58:00,
2013-02-01 23:13:00,48.4,44.0,30.19,SW,217,0.0,-999.0,84,-99.99,,,0.00,0,weatherlink.com 1.10,2013-02-02 07:13:00,
2013-02-01 23:28:00,48.3,44.0,30.19,South,170,0.0,-999.0,85,-99.99,,,0.00,0,weatherlink.com 1.10,2013-02-02 07:28:00,
2013-02-01 23:43:00,48.2,44.0,30.19,SSE,167,0.0,-999.0,85,-99.99,,,0.00,0,weatherlink.com 1.10,2013-02-02 07:43:00,
2013-02-01 23:58:00,48.1,44.0,30.19,SSE,167,0.0,-999.0,85,-99.99,,,0.00,0,weatherlink.com 1.10,2013-02-02 07:58:00,